sensor_id;sensor_type;location;lat;lon;timestamp;P1;durP1;ratioP1;P2;durP2;ratioP2
15454;SDS011;21057;51.024;7.540;2022-10-16T00:00:29;32.37;;;30.47;;
15454;SDS011;21057;51.024;7.540;2022-10-16T00:02:58;32.90;;;31.00;;
15454;SDS011;21057;51.024;7.540;2022-10-16T00:05:25;33.00;;;30.77;;
15454;SDS011;21057;51.024;7.540;2022-10-16T00:07:52;31.80;;;29.97;;
15454;SDS011;21057;51.024;7.540;2022-10-16T00:10:19;33.10;;;31.10;;
15454;SDS011;21057;51.024;7.540;2022-10-16T00:12:46;32.57;;;30.67;;
15454;SDS011;21057;51.024;7.540;2022-10-16T00:15:13;34.70;;;32.77;;
15454;SDS011;21057;51.024;7.540;2022-10-16T00:17:39;32.23;;;30.23;;
15454;SDS011;21057;51.024;7.540;2022-10-16T00:20:08;31.47;;;29.60;;
15454;SDS011;21057;51.024;7.540;2022-10-16T00:22:35;32.33;;;30.33;;
15454;SDS011;21057;51.024;7.540;2022-10-16T00:25:02;31.40;;;29.50;;
15454;SDS011;21057;51.024;7.540;2022-10-16T00:27:29;31.70;;;29.90;;
15454;SDS011;21057;51.024;7.540;2022-10-16T00:29:56;31.60;;;29.70;;
15454;SDS011;21057;51.024;7.540;2022-10-16T00:32:23;30.23;;;28.53;;
15454;SDS011;21057;51.024;7.540;2022-10-16T00:34:49;30.17;;;28.37;;
15454;SDS011;21057;51.024;7.540;2022-10-16T00:37:20;31.20;;;29.40;;
15454;SDS011;21057;51.024;7.540;2022-10-16T00:39:47;30.33;;;28.63;;
15454;SDS011;21057;51.024;7.540;2022-10-16T00:42:14;30.53;;;28.73;;
15454;SDS011;21057;51.024;7.540;2022-10-16T00:44:45;30.50;;;28.50;;
15454;SDS011;21057;51.024;7.540;2022-10-16T00:47:16;31.93;;;30.13;;
15454;SDS011;21057;51.024;7.540;2022-10-16T00:49:46;30.13;;;28.53;;
15454;SDS011;21057;51.024;7.540;2022-10-16T00:52:16;32.20;;;30.50;;
15454;SDS011;21057;51.024;7.540;2022-10-16T00:54:45;32.87;;;31.07;;
15454;SDS011;21057;51.024;7.540;2022-10-16T00:57:13;32.17;;;30.47;;
15454;SDS011;21057;51.024;7.540;2022-10-16T00:59:40;31.03;;;29.33;;
15454;SDS011;21057;51.024;7.540;2022-10-16T01:02:10;32.70;;;30.90;;
15454;SDS011;21057;51.024;7.540;2022-10-16T01:04:40;31.40;;;29.70;;
15454;SDS011;21057;51.024;7.540;2022-10-16T01:07:12;31.33;;;29.43;;
15454;SDS011;21057;51.024;7.540;2022-10-16T01:09:53;30.60;;;29.00;;
15454;SDS011;21057;51.024;7.540;2022-10-16T01:12:28;30.87;;;29.13;;
15454;SDS011;21057;51.024;7.540;2022-10-16T01:15:04;31.50;;;29.70;;
15454;SDS011;21057;51.024;7.540;2022-10-16T01:17:38;29.33;;;27.73;;
15454;SDS011;21057;51.024;7.540;2022-10-16T01:20:10;29.80;;;28.17;;
15454;SDS011;21057;51.024;7.540;2022-10-16T01:22:44;30.50;;;28.70;;
15454;SDS011;21057;51.024;7.540;2022-10-16T01:25:25;30.37;;;28.73;;
15454;SDS011;21057;51.024;7.540;2022-10-16T01:28:07;30.23;;;28.53;;
15454;SDS011;21057;51.024;7.540;2022-10-16T01:30:38;31.10;;;29.40;;
15454;SDS011;21057;51.024;7.540;2022-10-16T01:33:08;29.83;;;28.23;;
15454;SDS011;21057;51.024;7.540;2022-10-16T01:35:41;31.00;;;29.20;;
15454;SDS011;21057;51.024;7.540;2022-10-16T01:38:12;29.43;;;27.83;;
15454;SDS011;21057;51.024;7.540;2022-10-16T01:40:44;30.93;;;29.23;;
15454;SDS011;21057;51.024;7.540;2022-10-16T01:43:20;31.20;;;29.43;;
15454;SDS011;21057;51.024;7.540;2022-10-16T01:45:51;31.07;;;29.40;;
15454;SDS011;21057;51.024;7.540;2022-10-16T01:48:19;31.23;;;29.53;;
15454;SDS011;21057;51.024;7.540;2022-10-16T01:50:50;29.53;;;27.93;;
15454;SDS011;21057;51.024;7.540;2022-10-16T01:53:21;29.57;;;27.97;;
15454;SDS011;21057;51.024;7.540;2022-10-16T01:55:49;29.70;;;28.10;;
15454;SDS011;21057;51.024;7.540;2022-10-16T01:58:19;29.33;;;27.73;;
15454;SDS011;21057;51.024;7.540;2022-10-16T02:00:47;29.97;;;28.27;;
15454;SDS011;21057;51.024;7.540;2022-10-16T02:03:16;28.97;;;27.37;;
15454;SDS011;21057;51.024;7.540;2022-10-16T02:05:46;29.73;;;28.07;;
15454;SDS011;21057;51.024;7.540;2022-10-16T02:08:16;30.23;;;28.53;;
15454;SDS011;21057;51.024;7.540;2022-10-16T02:10:43;30.10;;;28.30;;
15454;SDS011;21057;51.024;7.540;2022-10-16T02:13:10;29.70;;;28.10;;
15454;SDS011;21057;51.024;7.540;2022-10-16T02:15:43;30.83;;;28.93;;
15454;SDS011;21057;51.024;7.540;2022-10-16T02:18:10;30.13;;;28.43;;
15454;SDS011;21057;51.024;7.540;2022-10-16T02:20:39;29.03;;;27.43;;
15454;SDS011;21057;51.024;7.540;2022-10-16T02:23:12;29.07;;;27.47;;
15454;SDS011;21057;51.024;7.540;2022-10-16T02:25:44;30.20;;;28.60;;
15454;SDS011;21057;51.024;7.540;2022-10-16T02:28:14;29.10;;;27.40;;
15454;SDS011;21057;51.024;7.540;2022-10-16T02:30:46;31.20;;;29.13;;
15454;SDS011;21057;51.024;7.540;2022-10-16T02:33:17;30.20;;;28.50;;
15454;SDS011;21057;51.024;7.540;2022-10-16T02:35:47;30.23;;;28.63;;
15454;SDS011;21057;51.024;7.540;2022-10-16T02:38:16;29.80;;;28.10;;
15454;SDS011;21057;51.024;7.540;2022-10-16T02:40:45;32.63;;;30.83;;
15454;SDS011;21057;51.024;7.540;2022-10-16T02:43:12;30.90;;;29.23;;
15454;SDS011;21057;51.024;7.540;2022-10-16T02:45:39;31.30;;;29.40;;
15454;SDS011;21057;51.024;7.540;2022-10-16T02:48:08;31.17;;;29.40;;
15454;SDS011;21057;51.024;7.540;2022-10-16T02:50:35;31.33;;;29.53;;
15454;SDS011;21057;51.024;7.540;2022-10-16T02:53:02;32.40;;;30.17;;
15454;SDS011;21057;51.024;7.540;2022-10-16T02:55:29;31.23;;;29.53;;
15454;SDS011;21057;51.024;7.540;2022-10-16T02:57:56;30.53;;;28.83;;
15454;SDS011;21057;51.024;7.540;2022-10-16T03:00:22;30.33;;;28.60;;
15454;SDS011;21057;51.024;7.540;2022-10-16T03:02:49;31.70;;;29.80;;
15454;SDS011;21057;51.024;7.540;2022-10-16T03:05:18;31.97;;;30.03;;
15454;SDS011;21057;51.024;7.540;2022-10-16T03:07:45;31.53;;;29.77;;
15454;SDS011;21057;51.024;7.540;2022-10-16T03:10:11;31.20;;;29.40;;
15454;SDS011;21057;51.024;7.540;2022-10-16T03:12:38;32.27;;;30.47;;
15454;SDS011;21057;51.024;7.540;2022-10-16T03:15:05;32.57;;;30.83;;
15454;SDS011;21057;51.024;7.540;2022-10-16T03:17:33;33.07;;;31.23;;
15454;SDS011;21057;51.024;7.540;2022-10-16T03:20:00;30.00;;;28.30;;
15454;SDS011;21057;51.024;7.540;2022-10-16T03:22:28;31.27;;;29.47;;
15454;SDS011;21057;51.024;7.540;2022-10-16T03:24:55;32.30;;;30.50;;
15454;SDS011;21057;51.024;7.540;2022-10-16T03:27:22;30.97;;;28.97;;
15454;SDS011;21057;51.024;7.540;2022-10-16T03:29:49;29.97;;;28.17;;
15454;SDS011;21057;51.024;7.540;2022-10-16T03:32:15;32.07;;;30.27;;
15454;SDS011;21057;51.024;7.540;2022-10-16T03:34:43;30.67;;;28.97;;
15454;SDS011;21057;51.024;7.540;2022-10-16T03:37:10;31.33;;;29.47;;
15454;SDS011;21057;51.024;7.540;2022-10-16T03:39:38;31.03;;;28.40;;
15454;SDS011;21057;51.024;7.540;2022-10-16T03:42:05;31.80;;;30.00;;
15454;SDS011;21057;51.024;7.540;2022-10-16T03:44:32;30.90;;;29.17;;
15454;SDS011;21057;51.024;7.540;2022-10-16T03:46:59;30.63;;;28.83;;
15454;SDS011;21057;51.024;7.540;2022-10-16T03:49:25;31.13;;;29.33;;
15454;SDS011;21057;51.024;7.540;2022-10-16T03:51:52;30.80;;;28.50;;
15454;SDS011;21057;51.024;7.540;2022-10-16T03:54:19;30.90;;;28.80;;
15454;SDS011;21057;51.024;7.540;2022-10-16T03:56:48;31.43;;;29.53;;
15454;SDS011;21057;51.024;7.540;2022-10-16T03:59:15;30.17;;;28.37;;
15454;SDS011;21057;51.024;7.540;2022-10-16T04:01:42;33.17;;;29.97;;
15454;SDS011;21057;51.024;7.540;2022-10-16T04:04:09;29.63;;;27.93;;
15454;SDS011;21057;51.024;7.540;2022-10-16T04:06:36;30.97;;;29.17;;
15454;SDS011;21057;51.024;7.540;2022-10-16T04:09:02;28.93;;;27.33;;
15454;SDS011;21057;51.024;7.540;2022-10-16T04:11:29;31.70;;;29.90;;
15454;SDS011;21057;51.024;7.540;2022-10-16T04:13:57;31.03;;;29.13;;
15454;SDS011;21057;51.024;7.540;2022-10-16T04:16:24;29.63;;;27.93;;
15454;SDS011;21057;51.024;7.540;2022-10-16T04:18:51;31.33;;;29.60;;
15454;SDS011;21057;51.024;7.540;2022-10-16T04:21:18;30.57;;;28.87;;
15454;SDS011;21057;51.024;7.540;2022-10-16T04:23:45;32.07;;;29.93;;
15454;SDS011;21057;51.024;7.540;2022-10-16T04:26:12;30.60;;;28.90;;
15454;SDS011;21057;51.024;7.540;2022-10-16T04:28:38;31.27;;;29.47;;
15454;SDS011;21057;51.024;7.540;2022-10-16T04:31:06;31.33;;;29.63;;
15454;SDS011;21057;51.024;7.540;2022-10-16T04:33:33;30.83;;;28.83;;
15454;SDS011;21057;51.024;7.540;2022-10-16T04:36:01;32.27;;;30.40;;
15454;SDS011;21057;51.024;7.540;2022-10-16T04:38:29;30.67;;;28.97;;
15454;SDS011;21057;51.024;7.540;2022-10-16T04:40:56;31.90;;;30.10;;
15454;SDS011;21057;51.024;7.540;2022-10-16T04:43:23;31.97;;;30.17;;
15454;SDS011;21057;51.024;7.540;2022-10-16T04:45:50;31.73;;;29.93;;
15454;SDS011;21057;51.024;7.540;2022-10-16T04:48:19;31.33;;;29.63;;
15454;SDS011;21057;51.024;7.540;2022-10-16T04:50:46;30.60;;;28.60;;
15454;SDS011;21057;51.024;7.540;2022-10-16T04:53:13;29.70;;;28.10;;
15454;SDS011;21057;51.024;7.540;2022-10-16T04:55:40;35.30;;;33.20;;
15454;SDS011;21057;51.024;7.540;2022-10-16T04:58:07;33.60;;;31.80;;
15454;SDS011;21057;51.024;7.540;2022-10-16T05:00:34;36.63;;;34.63;;
15454;SDS011;21057;51.024;7.540;2022-10-16T05:03:03;36.30;;;34.33;;
15454;SDS011;21057;51.024;7.540;2022-10-16T05:05:33;36.40;;;34.30;;
15454;SDS011;21057;51.024;7.540;2022-10-16T05:08:01;30.87;;;29.07;;
15454;SDS011;21057;51.024;7.540;2022-10-16T05:10:28;31.10;;;29.40;;
15454;SDS011;21057;51.024;7.540;2022-10-16T05:12:55;30.00;;;28.30;;
15454;SDS011;21057;51.024;7.540;2022-10-16T05:15:21;30.20;;;28.30;;
15454;SDS011;21057;51.024;7.540;2022-10-16T05:17:51;30.00;;;28.40;;
15454;SDS011;21057;51.024;7.540;2022-10-16T05:20:19;30.47;;;28.70;;
15454;SDS011;21057;51.024;7.540;2022-10-16T05:22:47;30.53;;;28.80;;
15454;SDS011;21057;51.024;7.540;2022-10-16T05:25:14;29.70;;;27.90;;
15454;SDS011;21057;51.024;7.540;2022-10-16T05:27:41;30.70;;;28.83;;
15454;SDS011;21057;51.024;7.540;2022-10-16T05:30:09;29.87;;;28.27;;
15454;SDS011;21057;51.024;7.540;2022-10-16T05:32:36;32.00;;;30.20;;
15454;SDS011;21057;51.024;7.540;2022-10-16T05:35:03;30.50;;;28.80;;
15454;SDS011;21057;51.024;7.540;2022-10-16T05:37:30;29.23;;;27.63;;
15454;SDS011;21057;51.024;7.540;2022-10-16T05:39:58;31.10;;;29.33;;
15454;SDS011;21057;51.024;7.540;2022-10-16T05:42:25;31.10;;;29.40;;
15454;SDS011;21057;51.024;7.540;2022-10-16T05:44:52;30.77;;;29.07;;
15454;SDS011;21057;51.024;7.540;2022-10-16T05:47:19;32.33;;;30.53;;
15454;SDS011;21057;51.024;7.540;2022-10-16T05:49:46;32.57;;;30.77;;
15454;SDS011;21057;51.024;7.540;2022-10-16T05:52:13;30.47;;;28.67;;
15454;SDS011;21057;51.024;7.540;2022-10-16T05:54:40;31.13;;;29.43;;
15454;SDS011;21057;51.024;7.540;2022-10-16T05:57:08;30.87;;;29.10;;
15454;SDS011;21057;51.024;7.540;2022-10-16T05:59:35;30.67;;;28.97;;
15454;SDS011;21057;51.024;7.540;2022-10-16T06:02:03;30.30;;;28.60;;
15454;SDS011;21057;51.024;7.540;2022-10-16T06:04:29;30.67;;;28.87;;
15454;SDS011;21057;51.024;7.540;2022-10-16T06:06:57;31.07;;;29.17;;
15454;SDS011;21057;51.024;7.540;2022-10-16T06:09:26;30.83;;;29.10;;
15454;SDS011;21057;51.024;7.540;2022-10-16T06:11:53;29.70;;;28.00;;
15454;SDS011;21057;51.024;7.540;2022-10-16T06:14:21;30.70;;;28.90;;
15454;SDS011;21057;51.024;7.540;2022-10-16T06:16:48;29.87;;;28.07;;
15454;SDS011;21057;51.024;7.540;2022-10-16T06:19:15;30.03;;;28.33;;
15454;SDS011;21057;51.024;7.540;2022-10-16T06:21:42;34.43;;;32.43;;
15454;SDS011;21057;51.024;7.540;2022-10-16T06:24:09;31.37;;;29.57;;
15454;SDS011;21057;51.024;7.540;2022-10-16T06:26:36;32.20;;;30.37;;
15454;SDS011;21057;51.024;7.540;2022-10-16T06:29:04;33.17;;;31.20;;
15454;SDS011;21057;51.024;7.540;2022-10-16T06:31:32;30.20;;;28.40;;
15454;SDS011;21057;51.024;7.540;2022-10-16T06:33:59;31.43;;;29.63;;
15454;SDS011;21057;51.024;7.540;2022-10-16T06:36:27;30.03;;;28.33;;
15454;SDS011;21057;51.024;7.540;2022-10-16T06:38:54;31.80;;;29.83;;
15454;SDS011;21057;51.024;7.540;2022-10-16T06:41:21;29.63;;;27.93;;
15454;SDS011;21057;51.024;7.540;2022-10-16T06:43:49;30.10;;;28.30;;
15454;SDS011;21057;51.024;7.540;2022-10-16T06:46:18;30.37;;;28.53;;
15454;SDS011;21057;51.024;7.540;2022-10-16T06:48:48;31.07;;;29.00;;
15454;SDS011;21057;51.024;7.540;2022-10-16T06:51:16;30.17;;;28.27;;
15454;SDS011;21057;51.024;7.540;2022-10-16T06:53:44;29.67;;;27.87;;
15454;SDS011;21057;51.024;7.540;2022-10-16T06:56:14;30.57;;;28.80;;
15454;SDS011;21057;51.024;7.540;2022-10-16T06:58:42;30.80;;;28.87;;
15454;SDS011;21057;51.024;7.540;2022-10-16T07:01:10;29.97;;;28.17;;
15454;SDS011;21057;51.024;7.540;2022-10-16T07:03:38;27.90;;;26.23;;
15454;SDS011;21057;51.024;7.540;2022-10-16T07:06:09;30.40;;;28.53;;
15454;SDS011;21057;51.024;7.540;2022-10-16T07:08:37;28.97;;;27.27;;
15454;SDS011;21057;51.024;7.540;2022-10-16T07:11:06;30.80;;;28.87;;
15454;SDS011;21057;51.024;7.540;2022-10-16T07:13:34;30.67;;;28.77;;
15454;SDS011;21057;51.024;7.540;2022-10-16T07:16:03;30.53;;;28.47;;
15454;SDS011;21057;51.024;7.540;2022-10-16T07:18:31;36.57;;;33.87;;
15454;SDS011;21057;51.024;7.540;2022-10-16T07:21:02;31.67;;;29.50;;
15454;SDS011;21057;51.024;7.540;2022-10-16T07:23:31;32.27;;;30.17;;
15454;SDS011;21057;51.024;7.540;2022-10-16T07:25:58;29.37;;;27.67;;
15454;SDS011;21057;51.024;7.540;2022-10-16T07:28:25;31.63;;;29.70;;
15454;SDS011;21057;51.024;7.540;2022-10-16T07:30:52;31.23;;;29.23;;
15454;SDS011;21057;51.024;7.540;2022-10-16T07:33:19;31.27;;;29.33;;
15454;SDS011;21057;51.024;7.540;2022-10-16T07:35:50;30.37;;;28.37;;
15454;SDS011;21057;51.024;7.540;2022-10-16T07:38:18;31.03;;;29.00;;
15454;SDS011;21057;51.024;7.540;2022-10-16T07:40:46;32.63;;;30.63;;
15454;SDS011;21057;51.024;7.540;2022-10-16T07:43:14;33.23;;;31.13;;
15454;SDS011;21057;51.024;7.540;2022-10-16T07:45:47;33.53;;;31.53;;
15454;SDS011;21057;51.024;7.540;2022-10-16T07:48:14;33.17;;;31.17;;
15454;SDS011;21057;51.024;7.540;2022-10-16T07:50:43;33.63;;;31.57;;
15454;SDS011;21057;51.024;7.540;2022-10-16T07:53:10;32.80;;;30.83;;
15454;SDS011;21057;51.024;7.540;2022-10-16T07:55:38;32.80;;;30.60;;
15454;SDS011;21057;51.024;7.540;2022-10-16T07:58:06;31.17;;;29.27;;
15454;SDS011;21057;51.024;7.540;2022-10-16T08:00:33;30.70;;;28.90;;
15454;SDS011;21057;51.024;7.540;2022-10-16T08:03:02;30.37;;;28.57;;
15454;SDS011;21057;51.024;7.540;2022-10-16T08:05:29;30.53;;;28.30;;
15454;SDS011;21057;51.024;7.540;2022-10-16T08:07:58;29.37;;;27.57;;
15454;SDS011;21057;51.024;7.540;2022-10-16T08:10:25;29.87;;;28.07;;
15454;SDS011;21057;51.024;7.540;2022-10-16T08:12:53;31.00;;;29.20;;
15454;SDS011;21057;51.024;7.540;2022-10-16T08:15:21;30.40;;;28.50;;
15454;SDS011;21057;51.024;7.540;2022-10-16T08:17:57;31.60;;;29.80;;
15454;SDS011;21057;51.024;7.540;2022-10-16T08:20:25;31.33;;;29.17;;
15454;SDS011;21057;51.024;7.540;2022-10-16T08:22:53;31.57;;;29.60;;
15454;SDS011;21057;51.024;7.540;2022-10-16T08:25:20;31.87;;;29.97;;
15454;SDS011;21057;51.024;7.540;2022-10-16T08:27:48;30.73;;;28.93;;
15454;SDS011;21057;51.024;7.540;2022-10-16T08:30:15;31.03;;;29.10;;
15454;SDS011;21057;51.024;7.540;2022-10-16T08:32:44;30.70;;;28.57;;
15454;SDS011;21057;51.024;7.540;2022-10-16T08:35:12;30.60;;;28.80;;
15454;SDS011;21057;51.024;7.540;2022-10-16T08:37:39;29.30;;;27.50;;
15454;SDS011;21057;51.024;7.540;2022-10-16T08:40:12;31.03;;;28.90;;
15454;SDS011;21057;51.024;7.540;2022-10-16T08:42:51;31.40;;;29.60;;
15454;SDS011;21057;51.024;7.540;2022-10-16T08:45:30;31.70;;;29.80;;
15454;SDS011;21057;51.024;7.540;2022-10-16T08:48:09;29.83;;;28.03;;
15454;SDS011;21057;51.024;7.540;2022-10-16T08:50:42;32.27;;;30.17;;
15454;SDS011;21057;51.024;7.540;2022-10-16T08:53:10;28.97;;;27.07;;
15454;SDS011;21057;51.024;7.540;2022-10-16T08:55:43;30.17;;;28.47;;
15454;SDS011;21057;51.024;7.540;2022-10-16T08:58:13;30.63;;;28.60;;
15454;SDS011;21057;51.024;7.540;2022-10-16T09:00:42;29.70;;;27.90;;
15454;SDS011;21057;51.024;7.540;2022-10-16T09:03:16;28.60;;;26.57;;
15454;SDS011;21057;51.024;7.540;2022-10-16T09:05:55;28.53;;;26.83;;
15454;SDS011;21057;51.024;7.540;2022-10-16T09:08:34;28.07;;;26.37;;
15454;SDS011;21057;51.024;7.540;2022-10-16T09:11:08;26.57;;;25.00;;
15454;SDS011;21057;51.024;7.540;2022-10-16T09:13:43;29.40;;;27.40;;
15454;SDS011;21057;51.024;7.540;2022-10-16T09:16:18;26.73;;;25.03;;
15454;SDS011;21057;51.024;7.540;2022-10-16T09:18:52;25.60;;;24.00;;
15454;SDS011;21057;51.024;7.540;2022-10-16T09:21:25;24.80;;;23.30;;
15454;SDS011;21057;51.024;7.540;2022-10-16T09:23:57;24.70;;;23.20;;
15454;SDS011;21057;51.024;7.540;2022-10-16T09:26:26;23.58;;;22.17;;
15454;SDS011;21057;51.024;7.540;2022-10-16T09:28:53;23.13;;;21.53;;
15454;SDS011;21057;51.024;7.540;2022-10-16T09:31:21;20.93;;;19.73;;
15454;SDS011;21057;51.024;7.540;2022-10-16T09:33:50;20.95;;;19.85;;
15454;SDS011;21057;51.024;7.540;2022-10-16T09:36:21;20.10;;;18.98;;
15454;SDS011;21057;51.024;7.540;2022-10-16T09:38:49;18.85;;;17.70;;
15454;SDS011;21057;51.024;7.540;2022-10-16T09:41:19;18.10;;;17.10;;
15454;SDS011;21057;51.024;7.540;2022-10-16T09:43:49;18.40;;;17.40;;
15454;SDS011;21057;51.024;7.540;2022-10-16T09:46:28;18.30;;;17.20;;
15454;SDS011;21057;51.024;7.540;2022-10-16T09:48:58;17.80;;;16.70;;
15454;SDS011;21057;51.024;7.540;2022-10-16T09:51:26;17.45;;;16.23;;
15454;SDS011;21057;51.024;7.540;2022-10-16T09:53:55;17.60;;;16.60;;
15454;SDS011;21057;51.024;7.540;2022-10-16T09:56:25;18.35;;;16.77;;
15454;SDS011;21057;51.024;7.540;2022-10-16T09:58:53;17.58;;;16.58;;
15454;SDS011;21057;51.024;7.540;2022-10-16T10:01:22;17.73;;;16.73;;
15454;SDS011;21057;51.024;7.540;2022-10-16T10:03:55;17.33;;;16.33;;
15454;SDS011;21057;51.024;7.540;2022-10-16T10:06:28;17.38;;;16.33;;
15454;SDS011;21057;51.024;7.540;2022-10-16T10:08:57;17.20;;;16.20;;
15454;SDS011;21057;51.024;7.540;2022-10-16T10:11:42;17.45;;;16.45;;
15454;SDS011;21057;51.024;7.540;2022-10-16T10:14:19;17.75;;;16.65;;
15454;SDS011;21057;51.024;7.540;2022-10-16T10:16:48;16.52;;;15.52;;
15454;SDS011;21057;51.024;7.540;2022-10-16T10:19:18;18.65;;;17.40;;
15454;SDS011;21057;51.024;7.540;2022-10-16T10:21:47;19.30;;;17.80;;
15454;SDS011;21057;51.024;7.540;2022-10-16T10:24:15;17.95;;;16.95;;
15454;SDS011;21057;51.024;7.540;2022-10-16T10:26:45;17.85;;;16.85;;
15454;SDS011;21057;51.024;7.540;2022-10-16T10:29:19;18.13;;;17.13;;
15454;SDS011;21057;51.024;7.540;2022-10-16T10:31:55;17.55;;;16.45;;
15454;SDS011;21057;51.024;7.540;2022-10-16T10:34:38;16.83;;;15.93;;
15454;SDS011;21057;51.024;7.540;2022-10-16T10:37:20;17.45;;;16.23;;
15454;SDS011;21057;51.024;7.540;2022-10-16T10:39:59;17.90;;;16.90;;
15454;SDS011;21057;51.024;7.540;2022-10-16T10:42:34;18.60;;;17.50;;
15454;SDS011;21057;51.024;7.540;2022-10-16T10:45:17;19.33;;;18.13;;
15454;SDS011;21057;51.024;7.540;2022-10-16T10:47:52;18.38;;;17.05;;
15454;SDS011;21057;51.024;7.540;2022-10-16T10:50:43;17.70;;;16.70;;
15454;SDS011;21057;51.024;7.540;2022-10-16T10:53:21;17.65;;;16.45;;
15454;SDS011;21057;51.024;7.540;2022-10-16T10:55:59;17.15;;;16.25;;
15454;SDS011;21057;51.024;7.540;2022-10-16T11:01:25;17.52;;;16.42;;
15454;SDS011;21057;51.024;7.540;2022-10-16T11:04:08;17.50;;;16.50;;
15454;SDS011;21057;51.024;7.540;2022-10-16T11:06:50;17.30;;;16.25;;
15454;SDS011;21057;51.024;7.540;2022-10-16T11:09:22;18.05;;;16.90;;
15454;SDS011;21057;51.024;7.540;2022-10-16T11:11:52;17.65;;;16.65;;
15454;SDS011;21057;51.024;7.540;2022-10-16T11:14:25;18.08;;;17.08;;
15454;SDS011;21057;51.024;7.540;2022-10-16T11:16:56;17.77;;;16.77;;
15454;SDS011;21057;51.024;7.540;2022-10-16T11:19:30;18.17;;;17.08;;
15454;SDS011;21057;51.024;7.540;2022-10-16T11:22:07;17.98;;;16.98;;
15454;SDS011;21057;51.024;7.540;2022-10-16T11:24:41;18.08;;;17.08;;
15454;SDS011;21057;51.024;7.540;2022-10-16T11:27:14;17.90;;;16.90;;
15454;SDS011;21057;51.024;7.540;2022-10-16T11:29:45;18.08;;;17.08;;
15454;SDS011;21057;51.024;7.540;2022-10-16T11:32:19;17.90;;;16.90;;
15454;SDS011;21057;51.024;7.540;2022-10-16T11:34:52;18.23;;;17.23;;
15454;SDS011;21057;51.024;7.540;2022-10-16T11:37:25;18.15;;;17.15;;
15454;SDS011;21057;51.024;7.540;2022-10-16T11:39:58;18.58;;;17.45;;
15454;SDS011;21057;51.024;7.540;2022-10-16T11:42:37;18.85;;;17.65;;
15454;SDS011;21057;51.024;7.540;2022-10-16T11:45:08;18.15;;;17.05;;
15454;SDS011;21057;51.024;7.540;2022-10-16T11:47:48;18.63;;;17.63;;
15454;SDS011;21057;51.024;7.540;2022-10-16T11:50:23;18.83;;;17.73;;
15454;SDS011;21057;51.024;7.540;2022-10-16T11:52:55;18.17;;;17.15;;
15454;SDS011;21057;51.024;7.540;2022-10-16T11:55:28;19.55;;;18.45;;
15454;SDS011;21057;51.024;7.540;2022-10-16T11:58:01;18.20;;;17.17;;
15454;SDS011;21057;51.024;7.540;2022-10-16T12:00:34;18.80;;;17.70;;
15454;SDS011;21057;51.024;7.540;2022-10-16T12:03:05;18.83;;;17.83;;
15454;SDS011;21057;51.024;7.540;2022-10-16T12:05:48;18.15;;;17.05;;
15454;SDS011;21057;51.024;7.540;2022-10-16T12:08:27;19.52;;;18.20;;
15454;SDS011;21057;51.024;7.540;2022-10-16T12:11:05;18.48;;;17.48;;
15454;SDS011;21057;51.024;7.540;2022-10-16T12:13:34;18.65;;;17.50;;
15454;SDS011;21057;51.024;7.540;2022-10-16T12:16:06;17.83;;;16.83;;
15454;SDS011;21057;51.024;7.540;2022-10-16T12:18:46;18.13;;;17.02;;
15454;SDS011;21057;51.024;7.540;2022-10-16T12:21:14;18.00;;;17.00;;
15454;SDS011;21057;51.024;7.540;2022-10-16T12:23:48;18.00;;;17.00;;
15454;SDS011;21057;51.024;7.540;2022-10-16T12:26:23;17.83;;;16.73;;
15454;SDS011;21057;51.024;7.540;2022-10-16T12:28:51;18.10;;;16.90;;
15454;SDS011;21057;51.024;7.540;2022-10-16T12:31:19;17.67;;;16.67;;
15454;SDS011;21057;51.024;7.540;2022-10-16T12:33:53;18.02;;;16.92;;
15454;SDS011;21057;51.024;7.540;2022-10-16T12:36:27;18.42;;;17.42;;
15454;SDS011;21057;51.024;7.540;2022-10-16T12:38:57;17.95;;;16.95;;
15454;SDS011;21057;51.024;7.540;2022-10-16T12:41:25;17.95;;;16.95;;
15454;SDS011;21057;51.024;7.540;2022-10-16T12:43:54;18.33;;;17.33;;
15454;SDS011;21057;51.024;7.540;2022-10-16T12:46:23;17.65;;;16.65;;
15454;SDS011;21057;51.024;7.540;2022-10-16T12:49:05;18.77;;;17.77;;
15454;SDS011;21057;51.024;7.540;2022-10-16T12:51:49;18.17;;;16.88;;
15454;SDS011;21057;51.024;7.540;2022-10-16T12:54:18;18.83;;;17.70;;
15454;SDS011;21057;51.024;7.540;2022-10-16T12:56:50;18.33;;;17.30;;
15454;SDS011;21057;51.024;7.540;2022-10-16T12:59:29;18.52;;;17.42;;
15454;SDS011;21057;51.024;7.540;2022-10-16T13:05:20;17.92;;;16.92;;
15454;SDS011;21057;51.024;7.540;2022-10-16T13:07:59;18.50;;;17.40;;
15454;SDS011;21057;51.024;7.540;2022-10-16T13:10:39;18.48;;;17.17;;
15454;SDS011;21057;51.024;7.540;2022-10-16T13:13:18;17.35;;;16.35;;
15454;SDS011;21057;51.024;7.540;2022-10-16T13:16:04;18.77;;;17.60;;
15454;SDS011;21057;51.024;7.540;2022-10-16T13:18:43;18.27;;;17.08;;
15454;SDS011;21057;51.024;7.540;2022-10-16T13:21:24;18.70;;;17.67;;
15454;SDS011;21057;51.024;7.540;2022-10-16T13:24:01;18.10;;;17.10;;
15454;SDS011;21057;51.024;7.540;2022-10-16T13:26:38;18.10;;;17.10;;
15454;SDS011;21057;51.024;7.540;2022-10-16T13:29:12;19.50;;;18.13;;
15454;SDS011;21057;51.024;7.540;2022-10-16T13:31:39;18.40;;;17.30;;
15454;SDS011;21057;51.024;7.540;2022-10-16T13:34:10;18.00;;;17.00;;
15454;SDS011;21057;51.024;7.540;2022-10-16T13:36:43;18.52;;;17.52;;
15454;SDS011;21057;51.024;7.540;2022-10-16T13:39:12;18.25;;;16.95;;
15454;SDS011;21057;51.024;7.540;2022-10-16T13:41:41;17.80;;;16.80;;
15454;SDS011;21057;51.024;7.540;2022-10-16T13:44:11;18.92;;;17.75;;
15454;SDS011;21057;51.024;7.540;2022-10-16T13:46:41;18.00;;;17.00;;
15454;SDS011;21057;51.024;7.540;2022-10-16T13:49:11;18.42;;;17.33;;
15454;SDS011;21057;51.024;7.540;2022-10-16T13:51:39;17.85;;;16.85;;
15454;SDS011;21057;51.024;7.540;2022-10-16T13:54:07;18.33;;;17.33;;
15454;SDS011;21057;51.024;7.540;2022-10-16T13:56:38;18.48;;;17.48;;
15454;SDS011;21057;51.024;7.540;2022-10-16T13:59:07;18.33;;;17.33;;
15454;SDS011;21057;51.024;7.540;2022-10-16T14:01:49;18.85;;;17.67;;
15454;SDS011;21057;51.024;7.540;2022-10-16T14:04:19;18.77;;;17.67;;
15454;SDS011;21057;51.024;7.540;2022-10-16T14:06:46;19.00;;;17.90;;
15454;SDS011;21057;51.024;7.540;2022-10-16T14:09:18;18.75;;;17.65;;
15454;SDS011;21057;51.024;7.540;2022-10-16T14:11:49;18.42;;;17.30;;
15454;SDS011;21057;51.024;7.540;2022-10-16T14:14:19;18.58;;;17.58;;
15454;SDS011;21057;51.024;7.540;2022-10-16T14:16:46;18.33;;;17.33;;
15454;SDS011;21057;51.024;7.540;2022-10-16T14:19:16;18.02;;;17.02;;
15454;SDS011;21057;51.024;7.540;2022-10-16T14:21:46;18.75;;;17.65;;
15454;SDS011;21057;51.024;7.540;2022-10-16T14:24:19;18.17;;;17.17;;
15454;SDS011;21057;51.024;7.540;2022-10-16T14:26:51;18.23;;;17.23;;
15454;SDS011;21057;51.024;7.540;2022-10-16T14:29:21;18.15;;;17.15;;
15454;SDS011;21057;51.024;7.540;2022-10-16T14:31:58;18.85;;;17.80;;
15454;SDS011;21057;51.024;7.540;2022-10-16T14:34:28;18.17;;;17.08;;
15454;SDS011;21057;51.024;7.540;2022-10-16T14:36:58;18.65;;;17.65;;
15454;SDS011;21057;51.024;7.540;2022-10-16T14:39:29;17.80;;;16.80;;
15454;SDS011;21057;51.024;7.540;2022-10-16T14:41:57;18.65;;;17.55;;
15454;SDS011;21057;51.024;7.540;2022-10-16T14:44:28;18.70;;;17.70;;